Time;durP1;ratioP1;P1;durP2;ratioP2;P2;SDS_P1;SDS_P2;PMS_P1;PMS_P2;Temp;Humidity;BMP_temperature;BMP_pressure;BME280_temperature;BME280_humidity;BME280_pressure;Samples;Min_cycle;Max_cycle;Signal;HPM_P1;HPM_P2
2021/01/15 00:00:11;;;;;;;16.87;9.57;;;1.80;99.90;;;;;;4999673;28;20449;-86
2021/01/15 00:02:45;;;;;;;20.47;10.63;;;1.80;99.90;;;;;;5014964;28;20509;-86
2021/01/15 00:05:14;;;;;;;16.07;10.43;;;1.70;99.90;;;;;;5011537;28;20460;-86
2021/01/15 00:07:41;;;;;;;16.87;10.30;;;1.80;99.90;;;;;;5013930;23;20581;-86
2021/01/15 00:10:19;;;;;;;16.93;9.70;;;1.80;99.90;;;;;;4998323;28;20442;-86
2021/01/15 00:12:47;;;;;;;19.37;9.87;;;1.80;99.90;;;;;;4998101;28;20433;-86
2021/01/15 00:15:16;;;;;;;16.40;10.40;;;1.90;99.90;;;;;;5015116;28;20446;-86
2021/01/15 00:17:45;;;;;;;16.87;9.97;;;1.80;99.90;;;;;;5015371;28;20497;-86
2021/01/15 00:20:16;;;;;;;17.93;10.57;;;1.80;99.90;;;;;;5015267;28;20948;-86
2021/01/15 00:22:47;;;;;;;19.53;10.13;;;1.80;99.90;;;;;;5015715;28;20466;-86
2021/01/15 00:30:37;;;;;;;17.50;9.80;;;1.80;99.90;;;;;;4994934;28;20502;-86
2021/01/15 00:33:09;;;;;;;16.77;10.03;;;1.90;99.90;;;;;;4977864;28;20447;-86
2021/01/15 00:35:40;;;;;;;16.30;9.90;;;1.80;99.90;;;;;;4995596;28;20448;-86
2021/01/15 00:38:13;;;;;;;14.10;10.00;;;1.80;99.90;;;;;;4996206;28;20467;-86
2021/01/15 00:40:40;;;;;;;18.27;13.20;;;1.70;99.90;;;;;;4995805;28;20416;-86
2021/01/15 00:48:26;;;;;;;16.93;11.10;;;1.60;99.90;;;;;;5033469;23;20490;-84
2021/01/15 00:51:12;;;;;;;21.23;11.00;;;1.60;99.90;;;;;;4998485;28;20470;-85
2021/01/15 01:08:32;;;;;;;25.07;13.83;;;1.50;99.90;;;;;;5007722;28;20500;-86
2021/01/15 01:11:32;;;;;;;21.40;13.10;;;1.40;99.90;;;;;;5016291;28;20481;-86
2021/01/15 01:16:57;;;;;;;19.97;12.13;;;1.30;99.90;;;;;;5018109;28;20454;-86
2021/01/15 01:19:52;;;;;;;15.77;11.50;;;1.40;99.90;;;;;;5064744;22;20494;-86
2021/01/15 01:25:19;;;;;;;21.60;12.40;;;1.40;99.90;;;;;;4998136;28;20447;-86
2021/01/15 01:27:51;;;;;;;19.07;11.80;;;1.40;99.90;;;;;;5024777;22;20493;-87
2021/01/15 01:33:27;;;;;;;16.87;11.70;;;1.30;99.90;;;;;;5014744;28;20434;-86
2021/01/15 01:35:57;;;;;;;23.00;12.77;;;1.40;99.90;;;;;;5015814;28;20422;-86
2021/01/15 01:38:24;;;;;;;21.27;11.53;;;1.50;99.90;;;;;;5010186;28;20477;-86
2021/01/15 01:40:55;;;;;;;25.80;12.23;;;1.40;99.90;;;;;;5013092;28;20459;-86
2021/01/15 01:43:23;;;;;;;20.53;13.43;;;1.40;99.90;;;;;;5014431;28;20920;-86
2021/01/15 01:45:55;;;;;;;19.20;13.43;;;1.50;99.90;;;;;;5013374;28;20430;-86
2021/01/15 01:48:23;;;;;;;20.40;16.20;;;1.50;99.90;;;;;;5012810;28;20434;-86
2021/01/15 01:51:00;;;;;;;20.67;13.60;;;1.50;99.90;;;;;;5013030;28;20211;-85
2021/01/15 01:53:32;;;;;;;21.10;12.83;;;1.40;99.90;;;;;;5050798;23;20528;-86
2021/01/15 01:56:16;;;;;;;27.77;12.93;;;1.60;99.90;;;;;;5038939;22;20446;-85
2021/01/15 01:58:47;;;;;;;22.27;12.83;;;1.50;99.90;;;;;;4991655;28;20475;-85
2021/01/15 02:01:14;;;;;;;21.67;12.73;;;1.50;99.90;;;;;;4993085;28;20465;-86
2021/01/15 02:03:41;;;;;;;22.43;12.00;;;1.60;99.90;;;;;;4994955;28;20493;-86
2021/01/15 02:06:16;;;;;;;19.73;12.20;;;1.50;99.90;;;;;;4995382;28;20878;-86
2021/01/15 02:08:43;;;;;;;20.33;12.03;;;1.40;99.90;;;;;;4996722;28;20474;-86
2021/01/15 02:11:25;;;;;;;24.23;13.07;;;1.40;99.90;;;;;;4996898;28;20480;-85
2021/01/15 02:14:09;;;;;;;20.97;13.37;;;1.40;99.90;;;;;;5001233;28;20465;-86
2021/01/15 02:16:37;;;;;;;20.90;12.63;;;1.40;99.90;;;;;;5001925;28;20443;-86
2021/01/15 02:22:57;;;;;;;22.67;13.10;;;1.40;99.90;;;;;;5214433;22;20489;-84
2021/01/15 02:26:40;;;;;;;22.77;13.90;;;1.40;99.90;;;;;;5101919;23;20540;-86
2021/01/15 02:29:54;;;;;;;23.57;12.93;;;1.40;99.90;;;;;;5036190;28;20434;-86
2021/01/15 02:33:04;;;;;;;24.07;13.90;;;1.30;99.90;;;;;;5060225;22;20445;-85
2021/01/15 02:36:12;;;;;;;25.23;12.53;;;1.20;99.90;;;;;;5041503;23;20474;-86
2021/01/15 02:38:58;;;;;;;23.23;11.93;;;1.30;99.90;;;;;;5018619;28;20480;-86
2021/01/15 02:41:36;;;;;;;24.27;13.00;;;1.40;99.90;;;;;;5018771;28;20446;-85
2021/01/15 02:44:06;;;;;;;22.70;12.50;;;1.30;99.90;;;;;;5017340;28;20457;-85
2021/01/15 02:52:43;;;;;;;27.45;19.10;;;1.40;99.90;;;;;;4955996;29;20427;-86
2021/01/15 02:55:19;;;;;;;26.73;14.70;;;1.40;99.90;;;;;;5017295;28;20189;-86
2021/01/15 02:57:48;;;;;;;16.43;12.23;;;1.40;99.90;;;;;;5015980;28;20470;-86
2021/01/15 03:00:38;;;;;;;18.93;13.40;;;1.50;99.90;;;;;;5016199;28;20417;-86
2021/01/15 03:03:17;;;;;;;24.13;13.83;;;1.50;99.90;;;;;;5015707;28;20506;-86
2021/01/15 03:05:50;;;;;;;24.47;13.03;;;1.50;99.90;;;;;;5016729;28;20434;-85
2021/01/15 03:08:23;;;;;;;19.60;13.70;;;1.60;99.90;;;;;;5017012;28;20562;-85
2021/01/15 03:11:10;;;;;;;23.73;13.83;;;1.70;99.90;;;;;;5017991;28;20447;-86
2021/01/15 03:14:00;;;;;;;28.20;14.87;;;1.60;99.90;;;;;;5016428;28;20461;-86
2021/01/15 03:16:31;;;;;;;27.27;15.50;;;1.50;99.90;;;;;;5000775;28;20457;-86
2021/01/15 03:19:41;;;;;;;28.50;15.47;;;1.50;99.90;;;;;;5017377;28;20529;-85
2021/01/15 03:22:19;;;;;;;25.33;14.37;;;1.50;99.90;;;;;;5016979;28;20489;-86
2021/01/15 03:25:21;;;;;;;28.13;16.37;;;1.50;99.90;;;;;;5015553;28;20450;-86
2021/01/15 03:30:40;;;;;;;28.27;16.73;;;1.50;99.90;;;;;;5017532;28;20461;-86
2021/01/15 03:33:12;;;;;;;30.23;15.87;;;1.50;99.90;;;;;;5018350;28;20449;-86
2021/01/15 03:39:01;;;;;;;29.17;17.13;;;1.40;99.90;;;;;;5019752;28;20470;-86
2021/01/15 03:44:15;;;;;;;28.27;16.97;;;1.40;99.90;;;;;;5015925;28;20446;-85
2021/01/15 03:46:51;;;;;;;22.97;15.53;;;1.40;99.90;;;;;;5014699;28;20469;-85
2021/01/15 03:49:22;;;;;;;27.87;16.33;;;1.50;99.90;;;;;;5012348;28;20450;-86
2021/01/15 03:52:02;;;;;;;27.07;16.50;;;1.40;99.90;;;;;;5017816;28;20485;-85
2021/01/15 03:54:31;;;;;;;31.38;22.33;;;1.50;99.90;;;;;;5032283;23;20434;-86
2021/01/15 03:57:29;;;;;;;29.63;18.43;;;1.20;99.90;;;;;;5062306;22;20232;-85
2021/01/15 04:00:49;;;;;;;29.03;17.10;;;1.30;99.90;;;;;;4996287;28;20451;-86
2021/01/15 05:46:56;;;;;;;18.10;11.17;;;1.40;99.90;;;;;;5019416;28;20526;-86
2021/01/15 05:49:41;;;;;;;17.33;11.57;;;1.50;99.90;;;;;;5020266;28;20494;-86
2021/01/15 06:02:40;;;;;;;16.47;11.43;;;1.60;99.90;;;;;;5081058;22;20496;-90
2021/01/15 06:08:34;;;;;;;16.47;12.43;;;1.50;99.90;;;;;;5121682;23;20484;-85
2021/01/15 06:18:34;;;;;;;16.10;11.40;;;1.50;99.90;;;;;;4980144;28;20503;-86
2021/01/15 06:32:10;;;;;;;16.47;10.30;;;1.60;99.90;;;;;;5019980;28;20442;-85
2021/01/15 09:15:02;;;;;;;12.83;10.43;;;2.50;99.90;;;;;;1770165;22;20791;-78
2021/01/15 09:17:29;;;;;;;13.97;10.53;;;2.60;99.90;;;;;;4994766;28;20678;-82
2021/01/15 09:19:56;;;;;;;15.03;11.50;;;2.80;99.90;;;;;;4998214;28;20455;-82
2021/01/15 09:22:26;;;;;;;18.90;11.00;;;2.80;99.90;;;;;;4998221;28;20507;-82
2021/01/15 09:24:54;;;;;;;15.13;10.47;;;2.80;99.90;;;;;;4999511;28;20430;-83
2021/01/15 09:27:26;;;;;;;14.50;11.27;;;2.70;99.90;;;;;;5038991;22;20493;-83
2021/01/15 09:30:01;;;;;;;12.43;10.23;;;2.80;99.90;;;;;;5021161;28;20443;-84
2021/01/15 09:32:36;;;;;;;12.90;10.27;;;2.90;99.90;;;;;;5005155;28;20450;-84
2021/01/15 09:35:27;;;;;;;11.33;9.13;;;2.80;99.90;;;;;;5022226;28;20433;-85
2021/01/15 09:37:58;;;;;;;11.47;9.53;;;2.80;99.90;;;;;;5025071;23;20524;-84
2021/01/15 09:40:28;;;;;;;10.93;9.63;;;2.90;99.90;;;;;;5030982;23;20492;-82
2021/01/15 09:43:01;;;;;;;14.07;10.17;;;3.00;99.90;;;;;;5021461;28;20466;-81
2021/01/15 09:45:31;;;;;;;12.73;9.97;;;2.90;99.90;;;;;;5019282;28;20454;-82
2021/01/15 09:48:00;;;;;;;15.27;11.60;;;3.00;99.90;;;;;;5016482;28;20434;-81
2021/01/15 09:50:32;;;;;;;14.13;10.43;;;2.90;99.90;;;;;;5019264;28;20205;-81
2021/01/15 09:53:07;;;;;;;16.00;11.33;;;3.10;99.90;;;;;;5020853;28;20415;-83
2021/01/15 09:55:54;;;;;;;12.93;9.73;;;3.30;99.90;;;;;;5028246;22;20588;-82
2021/01/15 09:58:46;;;;;;;14.90;10.47;;;3.30;99.90;;;;;;5240723;23;20482;-84
2021/01/15 10:01:25;;;;;;;17.10;11.00;;;3.20;99.90;;;;;;5015938;28;20434;-82
2021/01/15 10:03:54;;;;;;;12.20;10.50;;;3.20;99.90;;;;;;5017437;28;20453;-83
2021/01/15 10:06:21;;;;;;;11.30;9.37;;;3.10;99.90;;;;;;5015660;28;20453;-84
2021/01/15 10:08:50;;;;;;;11.40;10.20;;;3.00;99.90;;;;;;5014551;28;20497;-83
2021/01/15 10:11:30;;;;;;;13.20;10.53;;;3.00;99.90;;;;;;5014522;28;20460;-81
2021/01/15 10:13:59;;;;;;;12.47;9.90;;;3.10;99.90;;;;;;5013403;28;20446;-84
2021/01/15 10:16:30;;;;;;;12.70;10.50;;;3.10;99.90;;;;;;5014830;28;20446;-85
2021/01/15 10:19:01;;;;;;;11.43;10.00;;;3.20;99.90;;;;;;5013589;28;20566;-81
2021/01/15 10:21:35;;;;;;;13.80;9.77;;;3.30;99.90;;;;;;5019403;28;20442;-83
2021/01/15 10:24:20;;;;;;;13.53;10.80;;;3.30;99.90;;;;;;5015571;28;20540;-82
2021/01/15 10:26:49;;;;;;;12.07;10.73;;;3.40;99.90;;;;;;5018096;28;20446;-81
2021/01/15 10:32:04;;;;;;;12.93;9.33;;;3.50;99.90;;;;;;5017409;28;20461;-84
2021/01/15 10:34:49;;;;;;;12.70;10.20;;;3.40;99.90;;;;;;5018437;28;20423;-81
2021/01/15 10:37:40;;;;;;;9.40;8.40;;;3.40;99.90;;;;;;5042340;22;20490;-82
2021/01/15 10:40:20;;;;;;;8.73;7.83;;;3.50;99.90;;;;;;5015779;28;20457;-82
2021/01/15 10:42:47;;;;;;;10.00;7.47;;;3.50;99.90;;;;;;5030884;23;20494;-81
2021/01/15 10:45:16;;;;;;;11.43;8.50;;;3.40;99.90;;;;;;5016517;28;20437;-82
2021/01/15 10:47:44;;;;;;;11.70;9.03;;;3.50;99.90;;;;;;5017275;28;20534;-80
2021/01/15 10:50:17;;;;;;;9.43;8.43;;;3.60;99.90;;;;;;5025773;22;20482;-81
2021/01/15 10:55:39;;;;;;;12.80;10.37;;;3.60;99.90;;;;;;5078362;23;20513;-82
2021/01/15 10:58:37;;;;;;;14.67;10.70;;;3.50;99.90;;;;;;5003528;28;20477;-83
2021/01/15 11:01:12;;;;;;;12.17;10.17;;;3.70;99.90;;;;;;5018345;28;20458;-83
2021/01/15 11:03:52;;;;;;;11.93;10.33;;;3.60;99.90;;;;;;5018510;28;20486;-82
2021/01/15 11:06:28;;;;;;;15.70;10.53;;;3.70;99.90;;;;;;5017744;28;20450;-83
2021/01/15 11:09:06;;;;;;;11.90;10.53;;;3.70;99.90;;;;;;5038347;22;20485;-84
2021/01/15 11:14:47;;;;;;;13.60;10.47;;;3.60;99.90;;;;;;5014870;28;20443;-84
2021/01/15 11:17:23;;;;;;;13.10;10.13;;;3.80;99.90;;;;;;5017181;28;20470;-84
2021/01/15 11:20:09;;;;;;;16.70;10.20;;;3.80;99.90;;;;;;5018294;28;20474;-81
2021/01/15 11:25:16;;;;;;;15.20;10.57;;;3.70;99.90;;;;;;4996324;28;20495;-83
2021/01/15 11:27:52;;;;;;;13.40;10.97;;;3.60;99.90;;;;;;4998030;28;20462;-83
2021/01/15 11:33:57;;;;;;;13.80;10.60;;;3.60;99.90;;;;;;5050057;23;20493;-83
2021/01/15 11:37:17;;;;;;;17.47;10.87;;;3.50;99.90;;;;;;5016528;28;20965;-82
2021/01/15 11:42:31;;;;;;;13.37;10.90;;;3.80;99.90;;;;;;5015620;28;20438;-81
2021/01/15 11:45:10;;;;;;;14.73;10.67;;;3.80;99.90;;;;;;5016790;28;20450;-82
2021/01/15 11:47:54;;;;;;;17.03;11.30;;;3.90;99.90;;;;;;5031034;23;20490;-82
2021/01/15 11:53:43;;;;;;;12.20;10.23;;;4.00;99.90;;;;;;5015880;28;20415;-82
2021/01/15 12:16:24;;;;;;;11.03;9.80;;;4.60;99.90;;;;;;6079264;23;20255;-85
2021/01/15 12:19:13;;;;;;;13.13;10.90;;;4.50;99.90;;;;;;6145540;23;20196;-83
2021/01/15 12:24:20;;;;;;;15.80;9.23;;;4.50;99.90;;;;;;6097868;23;20463;-82
2021/01/15 12:35:31;;;;;;;14.03;9.77;;;4.50;99.90;;;;;;6109212;23;20459;-84
2021/01/15 12:38:24;;;;;;;13.90;9.43;;;4.50;99.90;;;;;;6122983;23;20459;-83
2021/01/15 12:41:09;;;;;;;12.70;9.53;;;4.10;99.90;;;;;;6128892;23;20421;-84
2021/01/15 12:43:44;;;;;;;15.47;9.60;;;4.20;99.90;;;;;;6099446;23;20455;-80
2021/01/15 12:46:40;;;;;;;12.77;10.20;;;4.20;99.90;;;;;;6127269;23;20395;-81
2021/01/15 12:52:23;;;;;;;16.17;9.77;;;4.20;99.90;;;;;;6097900;23;20416;-82
2021/01/15 12:55:31;;;;;;;13.43;10.50;;;4.30;99.90;;;;;;6095864;23;20471;-85
2021/01/15 12:58:04;;;;;;;15.90;11.03;;;4.30;99.90;;;;;;6099468;23;20462;-86
2021/01/15 13:01:02;;;;;;;13.37;10.40;;;4.30;99.90;;;;;;6100538;23;20400;-86
2021/01/15 13:03:42;;;;;;;12.30;9.97;;;4.30;99.90;;;;;;6100138;23;20415;-86
2021/01/15 13:06:25;;;;;;;12.37;10.63;;;4.30;99.90;;;;;;6075389;23;20402;-85
2021/01/15 13:09:34;;;;;;;15.03;10.47;;;4.40;99.90;;;;;;6094577;23;20440;-86
2021/01/15 13:12:06;;;;;;;15.27;11.20;;;4.30;99.90;;;;;;6093341;23;20484;-86
2021/01/15 13:14:37;;;;;;;14.37;11.20;;;4.40;99.90;;;;;;6093851;23;20413;-85
2021/01/15 13:23:08;;;;;;;16.60;10.90;;;4.50;99.90;;;;;;6092040;23;20420;-85
2021/01/15 13:28:26;;;;;;;14.60;10.53;;;4.60;99.90;;;;;;6099691;23;20221;-85
2021/01/15 13:30:53;;;;;;;15.53;10.13;;;4.70;99.90;;;;;;6114092;23;20177;-82
2021/01/15 13:33:21;;;;;;;17.27;11.07;;;4.70;99.90;;;;;;6087321;23;20412;-82
2021/01/15 13:35:48;;;;;;;17.07;10.43;;;4.60;99.90;;;;;;6113274;23;20420;-82
2021/01/15 13:38:15;;;;;;;15.57;10.33;;;4.60;99.90;;;;;;6112490;23;20466;-81
2021/01/15 13:40:42;;;;;;;12.27;10.50;;;4.70;99.90;;;;;;6111723;23;20184;-82
2021/01/15 13:43:09;;;;;;;16.53;11.20;;;4.80;99.90;;;;;;6112631;23;20427;-82
2021/01/15 13:45:35;;;;;;;15.27;10.63;;;4.90;99.90;;;;;;6112772;23;20177;-82
2021/01/15 13:48:04;;;;;;;15.07;11.00;;;5.10;99.90;;;;;;6111925;23;20513;-82
2021/01/15 13:50:45;;;;;;;12.30;10.17;;;4.90;99.90;;;;;;6116777;23;20423;-84
2021/01/15 13:53:12;;;;;;;12.27;10.47;;;4.80;99.90;;;;;;6118154;23;20411;-82
2021/01/15 13:55:38;;;;;;;15.23;9.93;;;5.00;99.90;;;;;;6117348;23;20415;-84
2021/01/15 13:58:13;;;;;;;14.40;9.90;;;4.90;99.90;;;;;;6116846;23;20205;-83
2021/01/15 14:00:49;;;;;;;13.63;10.63;;;5.00;99.90;;;;;;6116813;23;20415;-83
2021/01/15 14:03:20;;;;;;;15.43;9.93;;;5.00;99.90;;;;;;6118368;23;20169;-84
2021/01/15 14:08:41;;;;;;;17.40;11.60;;;4.90;99.90;;;;;;6111918;23;20208;-85
2021/01/15 14:11:14;;;;;;;13.97;10.40;;;5.00;99.90;;;;;;6116032;23;20181;-83
2021/01/15 14:16:29;;;;;;;12.03;9.70;;;5.00;99.90;;;;;;6116810;23;20177;-84
2021/01/15 14:18:57;;;;;;;13.07;10.80;;;5.00;99.90;;;;;;6115782;23;20197;-83
2021/01/15 14:21:26;;;;;;;13.27;10.63;;;5.30;99.90;;;;;;6090291;23;20613;-84
2021/01/15 14:24:01;;;;;;;12.17;10.47;;;5.00;99.90;;;;;;6090671;23;20181;-83
2021/01/15 14:26:29;;;;;;;11.97;10.20;;;5.00;99.90;;;;;;6116654;23;20177;-84
2021/01/15 14:28:57;;;;;;;15.93;10.33;;;5.10;99.90;;;;;;6116257;23;20209;-83
2021/01/15 14:31:24;;;;;;;13.50;10.70;;;5.00;99.90;;;;;;6115497;23;20343;-84
2021/01/15 14:33:53;;;;;;;13.87;9.90;;;4.80;99.90;;;;;;6113945;23;20260;-82
2021/01/15 14:36:20;;;;;;;18.43;10.93;;;4.90;99.90;;;;;;6112306;23;20184;-82
2021/01/15 14:38:56;;;;;;;13.03;10.50;;;4.70;99.90;;;;;;6088607;23;20268;-82
2021/01/15 14:41:30;;;;;;;14.17;10.57;;;4.70;99.90;;;;;;6089745;23;20308;-86
2021/01/15 14:47:34;;;;;;;17.93;11.03;;;4.80;99.90;;;;;;6087786;23;20454;-86
2021/01/15 14:50:05;;;;;;;14.63;10.33;;;4.70;99.90;;;;;;6117674;23;20169;-86
2021/01/15 14:52:36;;;;;;;11.57;9.67;;;4.40;99.90;;;;;;6117695;23;20178;-86
2021/01/15 14:55:11;;;;;;;13.50;10.00;;;4.50;99.90;;;;;;6118594;23;20169;-84
2021/01/15 14:57:46;;;;;;;14.07;10.20;;;4.70;99.90;;;;;;6115677;23;20641;-84
2021/01/15 15:00:18;;;;;;;13.87;11.07;;;4.70;99.90;;;;;;6115542;23;20415;-84
2021/01/15 15:02:53;;;;;;;16.73;10.77;;;4.70;99.90;;;;;;6115910;23;20402;-84
2021/01/15 15:05:24;;;;;;;12.73;10.97;;;4.70;99.90;;;;;;6115635;23;20412;-84
2021/01/15 15:07:56;;;;;;;15.50;11.40;;;4.70;99.90;;;;;;6116860;23;20467;-84
2021/01/15 15:10:37;;;;;;;15.70;11.27;;;4.50;99.90;;;;;;6117254;23;20418;-84
2021/01/15 15:13:07;;;;;;;11.50;10.13;;;4.50;99.90;;;;;;6116462;23;20416;-84
2021/01/15 15:15:36;;;;;;;14.83;11.10;;;4.70;99.90;;;;;;6117083;23;20710;-84
2021/01/15 15:18:06;;;;;;;17.00;13.00;;;4.50;99.90;;;;;;6117555;23;20459;-84
2021/01/15 15:20:35;;;;;;;13.07;11.63;;;4.30;99.90;;;;;;6118040;23;20490;-84
2021/01/15 15:26:04;;;;;;;14.87;12.40;;;4.50;99.90;;;;;;6119468;23;20416;-85
2021/01/15 15:28:53;;;;;;;15.07;12.10;;;4.40;99.90;;;;;;6112153;23;20423;-85
2021/01/15 15:31:29;;;;;;;14.27;11.83;;;4.30;99.90;;;;;;6120071;23;20427;-85
2021/01/15 15:34:05;;;;;;;15.47;11.33;;;4.30;99.90;;;;;;6118030;23;20392;-85
2021/01/15 15:36:32;;;;;;;16.23;12.20;;;4.30;99.90;;;;;;6118873;23;20379;-85
2021/01/15 15:39:12;;;;;;;20.43;12.07;;;4.30;99.90;;;;;;6117752;23;20419;-84
2021/01/15 15:41:42;;;;;;;18.23;11.47;;;4.10;99.90;;;;;;6116394;23;20521;-85
2021/01/15 15:47:38;;;;;;;14.93;11.33;;;4.30;99.90;;;;;;6083273;23;20516;-84
2021/01/15 15:50:11;;;;;;;16.83;12.23;;;4.20;99.90;;;;;;6119904;23;20408;-84
2021/01/15 15:55:33;;;;;;;16.77;12.23;;;4.00;99.90;;;;;;6154424;23;20498;-85
2021/01/15 15:58:14;;;;;;;14.87;12.07;;;3.80;99.90;;;;;;6128401;23;20450;-86
2021/01/15 16:03:58;;;;;;;17.17;11.73;;;3.90;99.90;;;;;;6101776;23;20448;-87
2021/01/15 16:06:28;;;;;;;17.80;13.00;;;4.00;99.90;;;;;;6118576;23;20450;-86
2021/01/15 16:08:57;;;;;;;18.30;12.63;;;4.10;99.90;;;;;;6122311;23;20427;-85
2021/01/15 16:11:35;;;;;;;13.37;10.93;;;4.10;99.90;;;;;;6122704;23;20411;-84
2021/01/15 16:14:01;;;;;;;16.07;11.77;;;4.10;99.90;;;;;;6116521;23;20879;-91
2021/01/15 16:16:28;;;;;;;20.40;12.33;;;4.10;99.90;;;;;;6097993;23;20412;-92
2021/01/15 16:18:56;;;;;;;17.50;12.73;;;3.90;99.90;;;;;;6098002;23;20522;-91
2021/01/15 16:21:23;;;;;;;19.30;12.90;;;4.00;99.90;;;;;;6097842;23;20420;-89
2021/01/15 16:23:50;;;;;;;17.07;12.87;;;3.90;99.90;;;;;;6097957;23;20389;-92
2021/01/15 16:26:16;;;;;;;16.20;12.60;;;3.90;99.90;;;;;;6098535;23;20487;-91
2021/01/15 16:28:43;;;;;;;18.23;12.47;;;3.80;99.90;;;;;;6100418;23;21059;-92
2021/01/15 16:31:09;;;;;;;16.97;13.30;;;3.80;99.90;;;;;;6099577;23;20910;-92
2021/01/15 16:33:37;;;;;;;19.47;12.97;;;3.80;99.90;;;;;;6099208;23;20507;-91
2021/01/15 16:36:05;;;;;;;21.53;13.87;;;3.90;99.90;;;;;;6098543;23;20419;-91
2021/01/15 16:38:32;;;;;;;18.67;13.90;;;3.90;99.90;;;;;;6099167;23;20454;-91
2021/01/15 16:41:02;;;;;;;18.03;13.63;;;4.00;99.90;;;;;;6098222;23;20388;-91
2021/01/15 16:43:29;;;;;;;20.43;12.23;;;4.00;99.90;;;;;;6098822;23;20423;-93
2021/01/15 16:45:55;;;;;;;20.57;14.20;;;3.90;99.90;;;;;;6099576;23;20426;-92
2021/01/15 16:48:22;;;;;;;19.03;13.77;;;3.90;99.90;;;;;;6099754;23;20533;-91
2021/01/15 16:50:49;;;;;;;22.43;14.37;;;3.80;99.90;;;;;;6074656;23;20462;-92
2021/01/15 16:53:17;;;;;;;20.33;14.23;;;3.80;99.90;;;;;;6100431;23;20404;-92
2021/01/15 16:55:44;;;;;;;20.97;14.87;;;3.80;99.90;;;;;;6100420;23;20721;-91
2021/01/15 16:58:11;;;;;;;18.80;13.87;;;3.70;99.90;;;;;;6099794;23;20482;-93
2021/01/15 17:00:39;;;;;;;16.97;13.83;;;3.80;99.90;;;;;;6099959;23;20462;-91
2021/01/15 17:03:06;;;;;;;19.83;13.57;;;4.10;99.90;;;;;;6100231;23;20865;-93
2021/01/15 17:05:33;;;;;;;19.37;14.13;;;3.90;99.90;;;;;;6099591;23;20419;-92
2021/01/15 17:07:59;;;;;;;19.20;14.33;;;3.80;99.90;;;;;;6099842;23;20432;-92
2021/01/15 17:10:29;;;;;;;23.13;16.63;;;3.90;99.90;;;;;;6099762;23;20503;-93
2021/01/15 17:12:56;;;;;;;22.93;15.53;;;3.90;99.90;;;;;;6099554;23;20509;-91
2021/01/15 17:15:23;;;;;;;25.27;14.97;;;4.00;99.90;;;;;;6099473;23;20515;-90
2021/01/15 17:17:49;;;;;;;22.77;16.77;;;3.90;99.90;;;;;;6098964;23;20894;-91
2021/01/15 17:20:16;;;;;;;21.27;14.80;;;3.90;99.90;;;;;;6099155;23;20182;-91
2021/01/15 17:22:46;;;;;;;22.67;15.60;;;3.90;99.90;;;;;;6099153;23;20420;-92
2021/01/15 17:25:14;;;;;;;21.17;14.53;;;3.80;99.90;;;;;;6099367;23;20408;-91
2021/01/15 17:27:42;;;;;;;18.87;14.27;;;3.90;99.90;;;;;;6099167;23;20438;-91
2021/01/15 17:30:09;;;;;;;22.97;16.23;;;4.10;99.90;;;;;;6099727;23;20400;-92
2021/01/15 17:32:37;;;;;;;18.63;13.70;;;3.90;99.90;;;;;;6099326;23;20442;-91
2021/01/15 17:35:06;;;;;;;20.43;15.37;;;3.80;99.90;;;;;;6099758;23;20798;-92
2021/01/15 17:37:37;;;;;;;20.77;14.33;;;3.90;99.90;;;;;;6099412;23;20461;-91
2021/01/15 17:40:05;;;;;;;22.93;15.13;;;3.80;99.90;;;;;;6099468;23;20419;-91
2021/01/15 17:42:32;;;;;;;21.93;15.43;;;3.80;99.90;;;;;;6098743;23;20416;-91
2021/01/15 17:44:59;;;;;;;21.43;14.27;;;3.60;99.90;;;;;;6099654;23;20431;-92
2021/01/15 17:47:27;;;;;;;23.57;15.20;;;3.60;99.90;;;;;;6098989;23;20491;-92
2021/01/15 17:49:53;;;;;;;23.03;15.73;;;3.60;99.90;;;;;;6099565;23;20400;-92
2021/01/15 17:52:21;;;;;;;19.13;14.77;;;3.70;99.90;;;;;;6074170;23;20414;-92
2021/01/15 17:54:47;;;;;;;21.73;15.53;;;3.80;99.90;;;;;;6098660;23;20895;-93
2021/01/15 17:57:13;;;;;;;22.50;14.20;;;3.70;99.90;;;;;;6098665;23;20893;-92
2021/01/15 17:59:40;;;;;;;18.30;14.53;;;3.60;99.90;;;;;;6099219;23;20503;-92
2021/01/15 18:02:08;;;;;;;21.73;15.10;;;3.90;99.90;;;;;;6099652;23;20915;-92
2021/01/15 18:04:34;;;;;;;21.17;16.50;;;4.00;99.90;;;;;;6098840;23;20415;-93
2021/01/15 18:07:00;;;;;;;23.67;16.63;;;3.90;99.90;;;;;;6098937;23;20780;-91
2021/01/15 18:09:27;;;;;;;24.30;16.63;;;3.90;99.90;;;;;;6099052;23;20388;-92
2021/01/15 18:11:54;;;;;;;25.10;15.67;;;4.00;99.90;;;;;;6098984;23;20424;-92
2021/01/15 18:14:20;;;;;;;23.83;16.23;;;4.00;99.90;;;;;;6098720;23;20579;-92
2021/01/15 18:16:47;;;;;;;26.57;16.30;;;4.00;99.90;;;;;;6098785;23;20412;-91
2021/01/15 18:19:14;;;;;;;21.40;15.63;;;3.80;99.90;;;;;;6099320;23;20483;-92
2021/01/15 18:21:43;;;;;;;24.13;16.13;;;4.00;99.90;;;;;;6098722;23;20416;-91
2021/01/15 18:24:11;;;;;;;21.90;15.93;;;4.10;99.90;;;;;;6098699;23;20948;-93
2021/01/15 18:26:38;;;;;;;21.80;15.20;;;4.00;99.90;;;;;;6098290;23;20415;-93
2021/01/15 18:29:04;;;;;;;24.53;16.17;;;3.80;99.90;;;;;;6098723;23;20426;-92
2021/01/15 18:31:31;;;;;;;21.80;15.53;;;3.80;99.90;;;;;;6099200;23;20942;-92
2021/01/15 18:33:58;;;;;;;24.53;16.57;;;3.60;99.90;;;;;;6098704;23;20470;-91
2021/01/15 18:36:25;;;;;;;24.73;16.27;;;3.50;99.90;;;;;;6098978;23;20399;-90
2021/01/15 18:38:51;;;;;;;25.93;15.70;;;3.50;99.90;;;;;;6098255;23;20455;-92
2021/01/15 18:41:18;;;;;;;22.70;17.10;;;3.50;99.90;;;;;;6099751;23;20486;-92
2021/01/15 18:43:45;;;;;;;25.63;16.30;;;3.50;99.90;;;;;;6107836;23;20455;-91
2021/01/15 18:46:12;;;;;;;25.33;16.67;;;3.60;99.90;;;;;;6104565;23;20487;-90
2021/01/15 18:48:41;;;;;;;21.53;14.77;;;3.70;99.90;;;;;;6101470;23;20510;-92
2021/01/15 18:51:08;;;;;;;22.57;15.83;;;3.90;99.90;;;;;;6098601;23;20400;-92
2021/01/15 18:53:35;;;;;;;20.73;15.10;;;3.90;99.90;;;;;;6098566;23;20471;-91
2021/01/15 18:56:02;;;;;;;22.17;15.70;;;3.90;99.90;;;;;;6099570;23;20868;-91
2021/01/15 18:58:28;;;;;;;25.73;15.40;;;3.90;99.90;;;;;;6098900;23;20595;-91
2021/01/15 19:00:55;;;;;;;23.80;14.40;;;3.70;99.90;;;;;;6098697;23;20773;-92
2021/01/15 19:03:21;;;;;;;25.10;15.00;;;3.80;99.90;;;;;;6098887;23;20801;-92
2021/01/15 19:05:48;;;;;;;23.47;16.03;;;3.60;99.90;;;;;;6098248;23;20408;-91
2021/01/15 19:08:14;;;;;;;22.20;15.67;;;3.60;99.90;;;;;;6098608;23;20928;-92
2021/01/15 19:10:41;;;;;;;22.63;16.00;;;3.60;99.90;;;;;;6098413;23;20470;-92
2021/01/15 19:13:09;;;;;;;23.73;16.07;;;3.70;99.90;;;;;;6098705;23;20478;-91
2021/01/15 19:15:36;;;;;;;20.83;14.60;;;3.90;99.90;;;;;;6098252;23;20435;-91
2021/01/15 19:18:04;;;;;;;28.83;17.47;;;3.80;99.90;;;;;;6098053;23;20456;-93
2021/01/15 19:20:30;;;;;;;26.40;17.83;;;3.70;99.90;;;;;;6097981;23;20422;-92
2021/01/15 19:22:56;;;;;;;27.90;18.27;;;3.70;99.90;;;;;;6098624;23;20404;-94
2021/01/15 19:25:23;;;;;;;30.50;19.10;;;3.80;99.90;;;;;;6098351;23;20474;-92
2021/01/15 19:27:50;;;;;;;26.13;17.67;;;3.80;99.90;;;;;;6098250;23;20522;-90
2021/01/15 19:30:18;;;;;;;26.37;18.27;;;3.60;99.90;;;;;;6098155;23;20404;-93
2021/01/15 19:32:44;;;;;;;31.80;17.00;;;3.50;99.90;;;;;;6098586;23;20407;-92
2021/01/15 19:35:11;;;;;;;22.23;16.90;;;3.50;99.90;;;;;;6098175;23;20416;-91
2021/01/15 19:37:38;;;;;;;25.23;17.80;;;3.50;99.90;;;;;;6097974;23;20455;-91
2021/01/15 19:40:07;;;;;;;27.53;17.73;;;3.70;99.90;;;;;;6098846;23;20414;-91
2021/01/15 19:42:34;;;;;;;26.33;18.20;;;3.90;99.90;;;;;;6099217;23;20400;-91
2021/01/15 19:45:03;;;;;;;27.70;17.93;;;4.00;99.90;;;;;;6098804;23;20415;-91
2021/01/15 19:47:31;;;;;;;27.90;17.47;;;3.90;99.90;;;;;;6098078;23;20467;-92
2021/01/15 19:49:58;;;;;;;27.20;17.47;;;4.00;99.90;;;;;;6098438;23;20403;-91
2021/01/15 19:52:24;;;;;;;25.20;18.43;;;4.00;99.90;;;;;;6098525;23;20391;-91
2021/01/15 19:54:51;;;;;;;25.07;17.83;;;3.90;99.90;;;;;;6098552;23;20757;-92
2021/01/15 19:57:18;;;;;;;26.93;18.97;;;3.90;99.90;;;;;;6098188;23;20788;-92
2021/01/15 19:59:44;;;;;;;27.70;19.70;;;3.80;99.90;;;;;;6098521;23;20418;-91
2021/01/15 20:02:12;;;;;;;28.37;18.93;;;3.80;99.90;;;;;;6098690;23;20439;-91
2021/01/15 20:04:38;;;;;;;25.90;19.00;;;3.80;99.90;;;;;;6097971;23;20483;-94
2021/01/15 20:07:05;;;;;;;29.30;20.23;;;3.80;99.90;;;;;;6098222;23;20503;-92
2021/01/15 20:09:31;;;;;;;30.03;20.67;;;3.90;99.90;;;;;;6097918;23;20446;-92
2021/01/15 20:11:59;;;;;;;27.30;18.80;;;3.70;99.90;;;;;;6098082;23;20410;-92
2021/01/15 20:14:25;;;;;;;26.57;17.37;;;3.70;99.90;;;;;;6098112;23;20471;-92
2021/01/15 20:16:52;;;;;;;29.50;18.40;;;3.80;99.90;;;;;;6097855;23;20883;-92
2021/01/15 20:19:19;;;;;;;25.63;18.43;;;3.80;99.90;;;;;;6099344;23;20439;-92
2021/01/15 20:21:45;;;;;;;28.00;18.67;;;3.80;99.90;;;;;;6100131;23;20884;-91